Time;durP1;ratioP1;P1;durP2;ratioP2;P2;SDS_P1;SDS_P2;PMS_P1;PMS_P2;Temp;Humidity;BMP_temperature;BMP_pressure;BME280_temperature;BME280_humidity;BME280_pressure;Samples;Min_cycle;Max_cycle;Signal;HPM_P1;HPM_P2
2024/01/16 00:00:16;;;;;;;0.10;0.10;;;;;;;-3.96;100.00;95148.63;1039837;28;20029;-69
2024/01/16 00:00:47;;;;;;;0.00;0.00;;;;;;;-3.95;100.00;95152.78;1035382;28;20038;-69
2024/01/16 00:01:18;;;;;;;0.88;0.52;;;;;;;-3.97;100.00;95158.09;1030929;28;20034;-69
2024/01/16 00:01:48;;;;;;;0.10;0.10;;;;;;;-4.03;100.00;95154.50;1027408;28;20046;-69
2024/01/16 00:02:18;;;;;;;0.00;0.00;;;;;;;-4.03;100.00;95157.03;1027385;28;20042;-68
2024/01/16 00:02:49;;;;;;;0.20;0.20;;;;;;;-4.10;100.00;95151.09;1031310;28;20038;-68
2024/01/16 00:03:19;;;;;;;0.00;0.00;;;;;;;-4.07;100.00;95155.84;1027073;28;20039;-69
2024/01/16 00:03:50;;;;;;;0.32;0.32;;;;;;;-4.05;100.00;95156.47;1026713;28;20045;-69
2024/01/16 00:04:20;;;;;;;1.17;0.45;;;;;;;-4.03;100.00;95164.72;1019539;29;20031;-69
2024/01/16 00:04:51;;;;;;;0.75;0.55;;;;;;;-4.00;100.00;95160.22;1026512;28;20038;-69
2024/01/16 00:05:21;;;;;;;0.30;0.30;;;;;;;-4.01;100.00;95163.78;1026922;28;20371;-69
2024/01/16 00:05:52;;;;;;;0.88;0.55;;;;;;;-3.96;100.00;95169.91;1027943;28;20037;-69
2024/01/16 00:06:22;;;;;;;0.13;0.13;;;;;;;-3.94;100.00;95169.75;1028425;28;20041;-69
2024/01/16 00:06:53;;;;;;;0.00;0.00;;;;;;;-3.94;100.00;95165.41;1027411;28;20102;-69
2024/01/16 00:07:23;;;;;;;0.00;0.00;;;;;;;-3.91;100.00;95169.38;1026911;28;20078;-70
2024/01/16 00:07:54;;;;;;;0.00;0.00;;;;;;;-3.90;100.00;95166.59;1027882;28;20504;-68
2024/01/16 00:08:24;;;;;;;0.70;0.20;;;;;;;-3.90;100.00;95170.94;1030732;28;20092;-68
2024/01/16 00:08:54;;;;;;;0.03;0.03;;;;;;;-3.88;100.00;95172.34;1031027;28;20042;-69
2024/01/16 00:09:25;;;;;;;0.55;0.25;;;;;;;-3.92;100.00;95167.78;1030901;28;20034;-69
2024/01/16 00:09:55;;;;;;;0.17;0.17;;;;;;;-3.89;100.00;95170.78;1034762;28;20026;-69
2024/01/16 00:10:26;;;;;;;0.38;0.38;;;;;;;-3.83;100.00;95164.09;1027072;28;20027;-69
2024/01/16 00:10:56;;;;;;;0.08;0.05;;;;;;;-3.82;100.00;95173.38;1027444;28;20031;-68
2024/01/16 00:11:27;;;;;;;0.00;0.00;;;;;;;-3.82;100.00;95173.38;1022884;28;20039;-68
2024/01/16 00:11:57;;;;;;;0.00;0.00;;;;;;;-3.83;100.00;95171.78;1023273;28;20832;-70
2024/01/16 00:12:28;;;;;;;0.00;0.00;;;;;;;-3.86;100.00;95167.03;1027153;28;20062;-68
2024/01/16 00:12:58;;;;;;;0.00;0.00;;;;;;;-3.82;100.00;95178.50;1026913;28;20065;-70
2024/01/16 00:13:29;;;;;;;0.00;0.00;;;;;;;-3.83;100.00;95174.34;1023094;28;20592;-68
2024/01/16 00:13:59;;;;;;;0.00;0.00;;;;;;;-3.86;100.00;95175.50;1027208;28;20038;-69
2024/01/16 00:14:29;;;;;;;0.00;0.00;;;;;;;-3.92;100.00;95167.78;1031053;28;20061;-69
2024/01/16 00:15:00;;;;;;;0.00;0.00;;;;;;;-3.86;100.00;95174.72;1027120;28;20121;-68
2024/01/16 00:15:30;;;;;;;0.00;0.00;;;;;;;-3.90;100.00;95178.63;1023034;29;20509;-69
2024/01/16 00:16:04;;;;;;;0.00;0.00;;;;;;;-3.90;100.00;95176.06;1022879;29;20034;-69
2024/01/16 00:16:44;;;;;;;0.00;0.00;;;;;;;-3.89;100.00;95177.63;1024057;28;20063;-69
2024/01/16 00:17:15;;;;;;;0.13;0.13;;;;;;;-3.92;100.00;95173.72;1034940;28;20273;-69
2024/01/16 00:17:45;;;;;;;0.60;0.60;;;;;;;-3.93;100.00;95176.44;1039740;28;20033;-70
2024/01/16 00:18:16;;;;;;;0.43;0.43;;;;;;;-3.97;100.00;95180.34;1036387;28;20029;-68
2024/01/16 00:18:46;;;;;;;0.10;0.10;;;;;;;-3.99;100.00;95175.44;1031296;28;20026;-68
2024/01/16 00:19:17;;;;;;;0.10;0.10;;;;;;;-3.96;100.00;95184.50;1027146;28;20031;-69
2024/01/16 00:19:47;;;;;;;0.80;0.55;;;;;;;-3.93;100.00;95184.91;1018869;29;20477;-68
2024/01/16 00:20:18;;;;;;;0.00;0.00;;;;;;;-3.95;100.00;95186.88;1019562;29;20106;-69
2024/01/16 00:20:48;;;;;;;0.00;0.00;;;;;;;-3.98;100.00;95178.78;1015875;29;20087;-70
2024/01/16 00:21:19;;;;;;;0.20;0.20;;;;;;;-3.96;100.00;95187.06;1023411;28;20023;-70
2024/01/16 00:21:49;;;;;;;0.20;0.20;;;;;;;-3.98;100.00;95183.91;1027507;28;20050;-70
2024/01/16 00:22:20;;;;;;;0.85;0.55;;;;;;;-4.03;100.00;95180.09;1027337;28;20026;-69
2024/01/16 00:22:50;;;;;;;0.00;0.00;;;;;;;-4.03;100.00;95177.53;1031187;28;20033;-69
2024/01/16 00:23:21;;;;;;;0.20;0.20;;;;;;;-4.06;100.00;95188.19;1029452;28;20019;-69
2024/01/16 00:23:51;;;;;;;0.08;0.08;;;;;;;-4.07;100.00;95191.72;1027200;28;20037;-68
2024/01/16 00:24:22;;;;;;;0.00;0.00;;;;;;;-4.06;100.00;95184.81;1027052;28;20030;-69
2024/01/16 00:24:52;;;;;;;0.20;0.20;;;;;;;-4.09;100.00;95191.13;1027318;28;20513;-69
2024/01/16 00:25:23;;;;;;;0.00;0.00;;;;;;;-4.10;100.00;95186.94;1023107;29;20022;-68
2024/01/16 00:25:53;;;;;;;0.10;0.10;;;;;;;-4.06;100.00;95187.38;1023279;29;20419;-69
2024/01/16 00:26:24;;;;;;;0.45;0.45;;;;;;;-4.09;100.00;95188.56;1023288;28;20015;-69
2024/01/16 00:26:54;;;;;;;0.00;0.00;;;;;;;-4.12;100.00;95188.13;1030304;28;20045;-68
2024/01/16 00:27:25;;;;;;;0.00;0.00;;;;;;;-4.12;100.00;95188.13;1023163;29;20111;-68
2024/01/16 00:27:55;;;;;;;0.05;0.05;;;;;;;-4.13;100.00;95187.31;1014955;29;20503;-70
2024/01/16 00:28:26;;;;;;;0.00;0.00;;;;;;;-4.13;100.00;95186.53;1016166;29;20601;-70
2024/01/16 00:28:56;;;;;;;0.15;0.15;;;;;;;-4.11;100.00;95185.38;1019750;28;20023;-68
2024/01/16 00:29:27;;;;;;;0.00;0.00;;;;;;;-4.12;100.00;95183.81;1027072;28;20015;-68
2024/01/16 00:29:58;;;;;;;1.65;0.80;;;;;;;-4.16;100.00;95182.56;1035480;28;20024;-70
2024/01/16 00:30:29;;;;;;;0.40;0.40;;;;;;;-4.20;100.00;95181.34;1034858;28;20245;-70
2024/01/16 00:30:59;;;;;;;0.00;0.00;;;;;;;-4.23;100.00;95183.50;1031009;28;20089;-68
2024/01/16 00:31:30;;;;;;;0.00;0.00;;;;;;;-4.24;100.00;95185.25;1027396;28;20332;-68
2024/01/16 00:32:00;;;;;;;3.28;1.70;;;;;;;-4.23;100.00;95184.28;1027174;28;20027;-68
2024/01/16 00:32:31;;;;;;;0.10;0.10;;;;;;;-4.18;100.00;95181.97;1030917;28;20014;-68
2024/01/16 00:33:02;;;;;;;0.05;0.05;;;;;;;-4.25;100.00;95178.56;1027161;28;20111;-69
2024/01/16 00:33:33;;;;;;;0.00;0.00;;;;;;;-4.20;100.00;95186.47;1023005;28;20087;-68
2024/01/16 00:34:03;;;;;;;0.15;0.15;;;;;;;-4.19;100.00;95182.13;1027180;28;20293;-68
2024/01/16 00:34:34;;;;;;;0.03;0.03;;;;;;;-4.17;100.00;95180.97;1026914;28;20084;-70
2024/01/16 00:35:04;;;;;;;0.30;0.30;;;;;;;-4.16;100.00;95181.78;1022802;29;20011;-68
2024/01/16 00:35:35;;;;;;;0.10;0.10;;;;;;;-4.18;100.00;95176.06;1015528;29;20489;-68
2024/01/16 00:36:05;;;;;;;0.10;0.10;;;;;;;-4.19;100.00;95187.25;1019303;29;20024;-69
2024/01/16 00:36:37;;;;;;;0.00;0.00;;;;;;;-4.20;100.00;95178.78;1019122;28;20027;-67
2024/01/16 00:37:07;;;;;;;0.00;0.00;;;;;;;-4.17;100.00;95183.53;1029656;28;20018;-68
2024/01/16 00:37:37;;;;;;;0.10;0.10;;;;;;;-4.14;100.00;95183.19;1034411;28;20259;-68
2024/01/16 00:38:08;;;;;;;0.00;0.00;;;;;;;-4.10;100.00;95184.38;1029008;28;20057;-71
2024/01/16 00:38:38;;;;;;;0.10;0.10;;;;;;;-4.11;100.00;95185.38;1030913;28;20065;-69
2024/01/16 00:39:09;;;;;;;0.05;0.05;;;;;;;-4.11;100.00;95184.59;1034948;28;20017;-68
2024/01/16 00:39:40;;;;;;;0.00;0.00;;;;;;;-4.11;100.00;95180.25;1035378;28;20037;-68
2024/01/16 00:40:10;;;;;;;0.00;0.00;;;;;;;-4.11;100.00;95180.25;1034931;28;20038;-69
2024/01/16 00:40:41;;;;;;;0.03;0.03;;;;;;;-4.09;100.00;95186.00;1026920;28;20070;-68
2024/01/16 00:41:14;;;;;;;0.00;0.00;;;;;;;-4.08;100.00;95184.22;1027335;28;20014;-69
2024/01/16 00:41:45;;;;;;;0.00;0.00;;;;;;;-4.07;100.00;95186.59;1027957;28;20122;-69
2024/01/16 00:42:15;;;;;;;0.05;0.05;;;;;;;-4.08;100.00;95179.88;1031963;28;20285;-69
2024/01/16 00:42:46;;;;;;;0.15;0.15;;;;;;;-4.05;100.00;95187.19;1034522;28;20033;-69
2024/01/16 00:43:16;;;;;;;0.45;0.13;;;;;;;-4.06;100.00;95185.63;1034496;28;20022;-69
2024/01/16 00:43:47;;;;;;;0.00;0.00;;;;;;;-4.06;100.00;95183.06;1035090;28;20033;-68
2024/01/16 00:44:17;;;;;;;0.00;0.00;;;;;;;-4.07;100.00;95193.47;1035124;28;20409;-68
2024/01/16 00:44:48;;;;;;;0.52;0.28;;;;;;;-4.08;100.00;95185.00;1035051;28;20493;-69
2024/01/16 00:45:18;;;;;;;0.00;0.00;;;;;;;-4.04;100.00;95190.56;1031164;28;20022;-69
2024/01/16 00:45:49;;;;;;;0.15;0.15;;;;;;;-4.04;100.00;95186.22;1026739;28;20057;-69
2024/01/16 00:46:20;;;;;;;0.00;0.00;;;;;;;-4.05;100.00;95179.50;1027386;28;20057;-69
2024/01/16 00:46:50;;;;;;;0.00;0.00;;;;;;;-4.07;100.00;95186.59;1030755;28;20034;-68
2024/01/16 00:47:21;;;;;;;0.00;0.00;;;;;;;-4.07;100.00;95186.59;1030920;28;20341;-69
2024/01/16 00:47:51;;;;;;;0.08;0.08;;;;;;;-4.07;100.00;95185.78;1035117;28;20044;-69
2024/01/16 00:48:22;;;;;;;0.00;0.00;;;;;;;-4.05;100.00;95186.41;1030260;28;20034;-69
2024/01/16 00:48:52;;;;;;;0.20;0.20;;;;;;;-4.06;100.00;95188.19;1026616;28;20022;-70
2024/01/16 00:49:23;;;;;;;0.30;0.15;;;;;;;-4.07;100.00;95189.16;1022836;29;20063;-68
2024/01/16 00:49:53;;;;;;;0.00;0.00;;;;;;;-4.06;100.00;95192.50;1022968;28;20018;-68
2024/01/16 00:50:24;;;;;;;0.00;0.00;;;;;;;-4.05;100.00;95194.09;1023031;29;20027;-70
2024/01/16 00:50:54;;;;;;;0.15;0.15;;;;;;;-4.04;100.00;95190.56;1023420;28;20102;-69
2024/01/16 00:51:25;;;;;;;0.47;0.47;;;;;;;-4.17;100.00;95163.06;1030926;28;20026;-68
2024/01/16 00:51:55;;;;;;;0.00;0.00;;;;;;;-4.03;100.00;95185.22;1031272;28;20030;-69
2024/01/16 00:52:26;;;;;;;5.72;0.93;;;;;;;-4.03;100.00;95182.66;1030961;28;20544;-71
2024/01/16 00:52:57;;;;;;;0.20;0.20;;;;;;;-3.99;100.00;95184.88;1027130;28;20046;-69
2024/01/16 00:53:27;;;;;;;0.00;0.00;;;;;;;-4.04;100.00;95183.66;1031294;28;20038;-68
2024/01/16 00:53:58;;;;;;;0.00;0.00;;;;;;;-4.03;100.00;95184.44;1027546;28;20033;-69
2024/01/16 00:54:28;;;;;;;0.30;0.30;;;;;;;-4.08;100.00;95179.09;1027110;28;20027;-69
2024/01/16 00:54:59;;;;;;;0.25;0.25;;;;;;;-4.14;100.00;95178.06;1023152;29;20090;-65
2024/01/16 00:55:29;;;;;;;0.47;0.47;;;;;;;-4.12;100.00;95178.69;1018852;29;20035;-68
2024/01/16 00:56:00;;;;;;;0.00;0.00;;;;;;;-4.19;100.00;95177.00;1023135;28;20023;-68
2024/01/16 00:56:32;;;;;;;0.00;0.00;;;;;;;-4.16;100.00;95184.34;1022933;29;20782;-70
2024/01/16 00:57:03;;;;;;;2.63;0.77;;;;;;;-4.15;100.00;95183.38;1014927;29;20040;-69
2024/01/16 00:57:33;;;;;;;0.00;0.00;;;;;;;-4.16;100.00;95182.56;1014968;29;20292;-68
2024/01/16 00:58:04;;;;;;;0.00;0.00;;;;;;;-4.17;100.00;95183.53;1019278;28;20027;-68
2024/01/16 00:58:34;;;;;;;0.75;0.65;;;;;;;-4.20;100.00;95183.13;1031083;28;20026;-69
2024/01/16 00:59:04;;;;;;;0.30;0.30;;;;;;;-4.24;100.00;95185.25;1026933;28;20561;-69
2024/01/16 00:59:35;;;;;;;0.00;0.00;;;;;;;-4.23;100.00;95186.06;1025186;28;20050;-68
2024/01/16 01:00:06;;;;;;;0.00;0.00;;;;;;;-4.27;100.00;95180.50;1027383;28;20117;-69
2024/01/16 01:00:37;;;;;;;0.20;0.20;;;;;;;-4.27;100.00;95188.19;1026837;28;20117;-69
2024/01/16 01:01:07;;;;;;;0.00;0.00;;;;;;;-4.30;100.00;95188.56;1027003;28;20270;-67
2024/01/16 01:01:38;;;;;;;0.20;0.20;;;;;;;-4.34;100.00;95183.00;1019608;28;20023;-70
2024/01/16 01:02:11;;;;;;;0.10;0.10;;;;;;;-4.34;100.00;95184.78;1026957;28;20039;-69
2024/01/16 01:02:43;;;;;;;0.00;0.00;;;;;;;-4.34;100.00;95189.91;1023266;29;20035;-69
2024/01/16 01:03:13;;;;;;;0.00;0.00;;;;;;;-4.35;100.00;95188.31;1019952;29;20268;-69
2024/01/16 01:03:44;;;;;;;0.00;0.00;;;;;;;-4.39;100.00;95189.66;1019515;29;20276;-69
2024/01/16 01:04:14;;;;;;;0.00;0.00;;;;;;;-4.43;100.00;95189.22;1019329;29;20036;-70
2024/01/16 01:04:45;;;;;;;0.17;0.17;;;;;;;-4.44;100.00;95190.19;1017965;29;20032;-69
2024/01/16 01:05:15;;;;;;;0.30;0.25;;;;;;;-4.48;100.00;95193.31;1018942;29;20028;-68
2024/01/16 01:05:46;;;;;;;0.15;0.08;;;;;;;-4.52;100.00;95192.91;1022539;28;20027;-68
2024/01/16 01:06:16;;;;;;;0.00;0.00;;;;;;;-4.53;100.00;95186.16;1026875;28;20562;-70
2024/01/16 01:06:47;;;;;;;0.40;0.32;;;;;;;-4.51;100.00;95192.69;1035526;28;20057;-68
2024/01/16 01:07:17;;;;;;;0.00;0.00;;;;;;;-4.56;100.00;95197.59;1031003;28;20711;-69
2024/01/16 01:07:48;;;;;;;0.25;0.20;;;;;;;-4.57;100.00;95193.44;1030722;28;20397;-67
2024/01/16 01:08:18;;;;;;;0.00;0.00;;;;;;;-4.52;100.00;95196.25;1030605;28;20026;-68
2024/01/16 01:08:49;;;;;;;0.00;0.00;;;;;;;-4.52;100.00;95198.81;1030995;28;20038;-69
2024/01/16 01:09:19;;;;;;;0.57;0.57;;;;;;;-4.50;100.00;95201.16;1039270;28;20021;-69
2024/01/16 01:09:50;;;;;;;0.00;0.00;;;;;;;-4.51;100.00;95200.38;1031216;28;20486;-68
2024/01/16 01:10:20;;;;;;;0.63;0.50;;;;;;;-4.54;100.00;95197.41;1030915;28;20022;-68
2024/01/16 01:10:50;;;;;;;0.13;0.13;;;;;;;-4.56;100.00;95197.59;1031106;28;20030;-70
2024/01/16 01:11:21;;;;;;;0.20;0.20;;;;;;;-4.59;100.00;95187.72;1030982;28;20034;-68
2024/01/16 01:11:51;;;;;;;0.00;0.00;;;;;;;-4.62;100.00;95198.31;1039429;28;20040;-69
2024/01/16 01:12:22;;;;;;;0.00;0.00;;;;;;;-4.65;100.00;95191.00;1039611;28;20296;-70
2024/01/16 01:12:53;;;;;;;0.00;0.00;;;;;;;-4.69;100.00;95197.44;1039293;28;20057;-69
2024/01/16 01:13:25;;;;;;;0.10;0.10;;;;;;;-4.72;100.00;95202.94;1039194;28;20260;-69
2024/01/16 01:13:55;;;;;;;0.00;0.00;;;;;;;-4.78;100.00;95195.97;1039526;28;20089;-69
2024/01/16 01:14:29;;;;;;;0.00;0.00;;;;;;;-4.76;100.00;95209.38;1035012;28;20626;-69
2024/01/16 01:14:59;;;;;;;0.00;0.00;;;;;;;-4.68;100.00;95201.59;1026906;28;20037;-69
2024/01/16 01:15:30;;;;;;;0.00;0.00;;;;;;;-4.70;100.00;95202.72;1022801;29;20286;-69
2024/01/16 01:16:00;;;;;;;0.22;0.22;;;;;;;-4.71;100.00;95208.84;1019297;29;20530;-69
2024/01/16 01:16:31;;;;;;;0.10;0.10;;;;;;;-4.74;100.00;95213.34;1027404;28;20066;-70
2024/01/16 01:17:02;;;;;;;0.00;0.00;;;;;;;-4.78;100.00;95208.75;1027015;28;20077;-68
2024/01/16 01:17:32;;;;;;;0.00;0.00;;;;;;;-4.79;100.00;95214.88;1019158;29;20038;-69
2024/01/16 01:18:03;;;;;;;0.00;0.00;;;;;;;-4.80;100.00;95213.25;1022446;28;20038;-69
2024/01/16 01:18:34;;;;;;;0.10;0.10;;;;;;;-4.79;100.00;95215.66;1023303;28;20031;-69
2024/01/16 01:19:05;;;;;;;0.00;0.00;;;;;;;-4.83;100.00;95222.09;1027598;28;20265;-68
2024/01/16 01:19:35;;;;;;;0.00;0.00;;;;;;;-4.81;100.00;95216.78;1030779;28;20990;-68
2024/01/16 01:20:07;;;;;;;0.00;0.00;;;;;;;-4.78;100.00;95221.56;1019074;29;20031;-69
2024/01/16 01:20:38;;;;;;;1.02;0.60;;;;;;;-4.77;100.00;95220.56;1015304;29;20028;-68
2024/01/16 01:21:08;;;;;;;0.10;0.10;;;;;;;-4.74;100.00;95215.09;1019082;29;20263;-68
2024/01/16 01:21:39;;;;;;;0.55;0.55;;;;;;;-4.74;100.00;95222.78;1019368;28;20031;-68
2024/01/16 01:22:09;;;;;;;0.68;0.65;;;;;;;-4.76;100.00;95222.19;1027226;28;20704;-68
2024/01/16 01:22:40;;;;;;;0.00;0.00;;;;;;;-4.78;100.00;95219.00;1022933;29;20114;-68
2024/01/16 01:23:10;;;;;;;0.00;0.00;;;;;;;-4.79;100.00;95217.41;1024142;28;20031;-69
2024/01/16 01:23:41;;;;;;;0.52;0.52;;;;;;;-4.76;100.00;95222.19;1026854;28;20066;-69
2024/01/16 01:24:11;;;;;;;0.25;0.25;;;;;;;-4.70;100.00;95226.56;1027050;28;20023;-68
2024/01/16 01:24:42;;;;;;;0.32;0.32;;;;;;;-4.74;100.00;95230.47;1027358;28;20616;-69
2024/01/16 01:25:13;;;;;;;0.45;0.40;;;;;;;-4.78;100.00;95229.22;1030986;28;20026;-70
2024/01/16 01:25:43;;;;;;;0.00;0.00;;;;;;;-4.84;100.00;95219.72;1034929;28;20080;-69
2024/01/16 01:26:14;;;;;;;0.00;0.00;;;;;;;-4.85;100.00;95223.25;1035421;28;20127;-69
2024/01/16 01:26:44;;;;;;;0.93;0.47;;;;;;;-4.88;100.00;95226.16;1034773;28;20555;-70
2024/01/16 01:27:15;;;;;;;0.00;0.00;;;;;;;-4.91;100.00;95224.75;1035217;28;20461;-68
2024/01/16 01:27:45;;;;;;;0.88;0.88;;;;;;;-4.95;100.00;95230.41;1034831;28;20029;-69
2024/01/16 01:28:15;;;;;;;0.00;0.00;;;;;;;-5.00;100.00;95224.06;1026221;28;20027;-68
2024/01/16 01:28:46;;;;;;;0.00;0.00;;;;;;;-5.08;100.00;95208.81;1031054;28;20034;-68
2024/01/16 01:29:17;;;;;;;0.00;0.00;;;;;;;-4.97;100.00;95230.56;1026967;28;20512;-69
2024/01/16 01:29:47;;;;;;;0.00;0.00;;;;;;;-4.98;100.00;95229.00;1019136;28;20606;-68
2024/01/16 01:30:18;;;;;;;0.32;0.32;;;;;;;-5.03;100.00;95227.00;1026973;28;20612;-69
2024/01/16 01:30:48;;;;;;;0.00;0.00;;;;;;;-5.08;100.00;95228.47;1026711;28;20031;-69
2024/01/16 01:31:19;;;;;;;0.10;0.10;;;;;;;-5.07;100.00;95235.19;1027029;28;20067;-69
2024/01/16 01:31:49;;;;;;;0.32;0.32;;;;;;;-5.11;100.00;95239.84;1028491;28;20022;-69
2024/01/16 01:32:20;;;;;;;0.00;0.00;;;;;;;-5.15;100.00;95233.50;1023023;29;20023;-68
2024/01/16 01:32:50;;;;;;;0.00;0.00;;;;;;;-5.13;100.00;95236.69;1019065;29;20035;-68
2024/01/16 01:33:21;;;;;;;0.25;0.20;;;;;;;-5.14;100.00;95237.66;1019289;29;20329;-68
2024/01/16 01:33:51;;;;;;;0.10;0.10;;;;;;;-5.14;100.00;95240.22;1018962;29;20043;-69
2024/01/16 01:34:22;;;;;;;0.00;0.00;;;;;;;-5.08;100.00;95239.50;1021718;28;20027;-68
2024/01/16 01:34:52;;;;;;;0.10;0.10;;;;;;;-5.00;100.00;95244.53;1022719;29;20062;-69
2024/01/16 01:35:23;;;;;;;0.00;0.00;;;;;;;-5.06;100.00;95239.34;1022498;28;20019;-70
2024/01/16 01:35:53;;;;;;;0.38;0.38;;;;;;;-5.05;100.00;95248.59;1026933;28;20027;-68
2024/01/16 01:36:24;;;;;;;0.68;0.68;;;;;;;-5.08;100.00;95244.63;1023162;28;20039;-68
2024/01/16 01:36:57;;;;;;;0.00;0.00;;;;;;;-5.07;100.00;95251.31;1019439;28;20263;-70
2024/01/16 01:37:28;;;;;;;0.38;0.38;;;;;;;-5.10;100.00;95251.66;1026736;28;20022;-69
2024/01/16 01:37:58;;;;;;;0.00;0.00;;;;;;;-5.12;100.00;95253.63;1026565;28;20293;-68
2024/01/16 01:38:29;;;;;;;0.38;0.38;;;;;;;-5.15;100.00;95253.97;1031466;28;20038;-68
2024/01/16 01:38:59;;;;;;;0.10;0.10;;;;;;;-5.14;100.00;95249.66;1038874;28;20018;-68
2024/01/16 01:39:30;;;;;;;0.65;0.65;;;;;;;-5.22;100.00;95243.66;1034721;28;20026;-69
2024/01/16 01:40:00;;;;;;;0.40;0.22;;;;;;;-5.19;100.00;95254.50;1026717;28;20509;-68
2024/01/16 01:40:31;;;;;;;0.00;0.00;;;;;;;-5.23;100.00;95256.63;1022625;29;20023;-68
2024/01/16 01:41:01;;;;;;;0.00;0.00;;;;;;;-5.28;100.00;95259.69;1023034;28;20035;-68
2024/01/16 01:41:31;;;;;;;0.00;0.00;;;;;;;-5.33;100.00;95263.75;1027027;28;20551;-69
2024/01/16 01:42:02;;;;;;;0.10;0.10;;;;;;;-5.40;100.00;95257.75;1034632;28;20022;-67
2024/01/16 01:42:32;;;;;;;0.43;0.43;;;;;;;-5.43;100.00;95255.53;1038906;28;20052;-68
2024/01/16 01:43:25;;;;;;;0.00;0.00;;;;;;;-5.51;100.00;95259.75;1034978;28;20022;-69
2024/01/16 01:43:55;;;;;;;0.00;0.00;;;;;;;-5.55;100.00;95257.75;1030747;28;20429;-68
2024/01/16 01:44:26;;;;;;;0.10;0.10;;;;;;;-5.58;100.00;95261.44;1026640;28;20258;-68
2024/01/16 01:44:56;;;;;;;0.00;0.00;;;;;;;-5.61;100.00;95264.34;1027156;28;20430;-71
2024/01/16 01:45:27;;;;;;;0.40;0.40;;;;;;;-5.87;100.00;95233.28;1027017;28;20023;-69
2024/01/16 01:46:09;;;;;;;0.10;0.10;;;;;;;-5.68;100.00;95269.34;1026944;28;20019;-70
2024/01/16 01:46:40;;;;;;;0.00;0.00;;;;;;;-5.71;100.00;95262.03;1035013;28;20026;-68
2024/01/16 01:47:10;;;;;;;0.15;0.08;;;;;;;-5.73;100.00;95260.63;1032308;28;20301;-68
2024/01/16 01:47:44;;;;;;;0.00;0.00;;;;;;;-5.77;100.00;95264.47;1024687;28;20015;-69
2024/01/16 01:48:14;;;;;;;0.10;0.10;;;;;;;-5.87;100.00;95246.03;1018208;29;20055;-66
2024/01/16 01:48:50;;;;;;;0.00;0.00;;;;;;;-5.83;100.00;95270.28;1015868;29;20261;-68
2024/01/16 01:49:20;;;;;;;0.00;0.00;;;;;;;-5.83;100.00;95267.75;1018866;29;20028;-68
2024/01/16 01:49:51;;;;;;;0.10;0.10;;;;;;;-5.84;100.00;95263.59;1022803;29;20031;-69
2024/01/16 01:50:22;;;;;;;0.00;0.00;;;;;;;-5.81;100.00;95265.78;1023439;28;20110;-68
2024/01/16 01:50:52;;;;;;;0.00;0.00;;;;;;;-5.81;100.00;95263.25;1027001;28;20038;-68
2024/01/16 01:51:22;;;;;;;0.13;0.13;;;;;;;-5.84;100.00;95264.38;1026621;28;20023;-68
2024/01/16 01:51:53;;;;;;;0.00;0.00;;;;;;;-5.92;100.00;95247.34;1023128;28;20022;-68
2024/01/16 01:52:24;;;;;;;0.00;0.00;;;;;;;-5.85;100.00;95264.56;1022515;29;20019;-69
2024/01/16 01:52:54;;;;;;;0.20;0.20;;;;;;;-5.87;100.00;95269.03;1014811;29;20261;-68
2024/01/16 01:53:25;;;;;;;0.08;0.08;;;;;;;-5.89;100.00;95276.09;1015082;29;20056;-69
2024/01/16 01:53:55;;;;;;;0.00;0.00;;;;;;;-5.84;100.00;95261.81;1016702;29;20039;-70
2024/01/16 01:54:26;;;;;;;0.00;0.00;;;;;;;-5.87;100.00;95261.38;1018875;29;20024;-68
2024/01/16 01:54:56;;;;;;;2.17;1.00;;;;;;;-5.86;100.00;95268.09;1023713;29;20023;-68
2024/01/16 01:55:26;;;;;;;0.28;0.28;;;;;;;-5.88;100.00;95273.34;1023238;28;20011;-68
2024/01/16 01:55:57;;;;;;;0.10;0.10;;;;;;;-5.96;100.00;95268.34;1023522;29;20034;-67
2024/01/16 01:56:27;;;;;;;0.10;0.10;;;;;;;-5.89;100.00;95276.09;1023480;29;20023;-70
2024/01/16 01:56:58;;;;;;;0.40;0.40;;;;;;;-5.93;100.00;95266.25;1019553;29;20034;-68
2024/01/16 01:57:28;;;;;;;0.00;0.00;;;;;;;-5.87;100.00;95274.13;1027720;28;20517;-68
2024/01/16 01:58:00;;;;;;;0.90;0.57;;;;;;;-5.89;100.00;95268.44;1023280;28;20035;-67
2024/01/16 01:58:32;;;;;;;0.12;0.12;;;;;;;-5.92;100.00;95272.91;1019423;29;20015;-68
2024/01/16 01:59:02;;;;;;;0.04;0.04;;;;;;;-5.94;100.00;95279.16;1015639;29;20024;-68
2024/01/16 01:59:33;;;;;;;0.10;0.10;;;;;;;-5.99;100.00;95272.03;1015418;29;20032;-68
2024/01/16 02:00:04;;;;;;;0.00;0.00;;;;;;;-6.01;100.00;95268.84;1015709;29;20024;-69
2024/01/16 02:00:35;;;;;;;0.32;0.32;;;;;;;-5.97;100.00;95276.94;1015812;29;20542;-69
2024/01/16 02:01:06;;;;;;;0.10;0.10;;;;;;;-6.02;100.00;95266.47;1016735;28;20032;-68
2024/01/16 02:01:36;;;;;;;1.95;1.15;;;;;;;-6.10;100.00;95267.34;1019618;29;20566;-69
2024/01/16 02:02:06;;;;;;;0.00;0.00;;;;;;;-6.06;100.00;95267.78;1027196;28;20027;-68
2024/01/16 02:02:37;;;;;;;0.25;0.25;;;;;;;-6.03;100.00;95281.00;1027662;28;20023;-68
2024/01/16 02:03:07;;;;;;;0.15;0.15;;;;;;;-5.96;100.00;95276.81;1023401;28;20027;-68
2024/01/16 02:03:44;;;;;;;0.00;0.00;;;;;;;-6.02;100.00;95287.69;1023386;28;20086;-69
2024/01/16 02:04:18;;;;;;;0.10;0.10;;;;;;;-6.01;100.00;95281.63;1015872;29;20043;-69
2024/01/16 02:04:48;;;;;;;0.00;0.00;;;;;;;-6.00;100.00;95275.56;1027139;28;20476;-69
2024/01/16 02:05:18;;;;;;;0.47;0.28;;;;;;;-5.90;100.00;95289.81;1023474;29;20108;-68
2024/01/16 02:05:49;;;;;;;1.35;0.63;;;;;;;-5.88;100.00;95293.00;1015807;29;20119;-68
2024/01/16 02:06:19;;;;;;;1.85;1.75;;;;;;;-5.85;100.00;95288.34;1023123;29;20030;-68
2024/01/16 02:06:50;;;;;;;0.10;0.10;;;;;;;-5.85;100.00;95293.44;1024021;28;20027;-68
2024/01/16 02:07:21;;;;;;;0.00;0.00;;;;;;;-5.85;100.00;95287.53;1027445;28;20103;-68
2024/01/16 02:07:51;;;;;;;0.32;0.32;;;;;;;-5.95;100.00;95278.38;1031000;28;20030;-68
2024/01/16 02:08:22;;;;;;;0.00;0.00;;;;;;;-5.90;100.00;95284.69;1031117;28;20053;-66
2024/01/16 02:08:52;;;;;;;0.00;0.00;;;;;;;-5.87;100.00;95285.16;1031348;28;20042;-68
2024/01/16 02:09:23;;;;;;;1.45;0.90;;;;;;;-5.89;100.00;95284.53;1027284;28;20034;-68
2024/01/16 02:09:53;;;;;;;0.00;0.00;;;;;;;-5.90;100.00;95284.69;1023590;29;20059;-67
2024/01/16 02:10:24;;;;;;;0.00;0.00;;;;;;;-5.91;100.00;95283.91;1019466;29;20020;-69
2024/01/16 02:10:54;;;;;;;0.20;0.20;;;;;;;-5.90;100.00;95280.41;1023766;28;20102;-65
2024/01/16 02:11:25;;;;;;;0.43;0.43;;;;;;;-5.89;100.00;95283.75;1025855;28;20026;-68
2024/01/16 02:11:55;;;;;;;0.20;0.20;;;;;;;-5.97;100.00;95270.13;1027790;28;20050;-69
2024/01/16 02:12:26;;;;;;;0.00;0.00;;;;;;;-5.95;100.00;95285.25;1027505;28;20023;-68
2024/01/16 02:12:56;;;;;;;0.00;0.00;;;;;;;-5.82;100.00;95284.66;1020024;29;20507;-68
2024/01/16 02:13:27;;;;;;;0.08;0.08;;;;;;;-5.78;100.00;95288.44;1023399;28;20023;-68
2024/01/16 02:13:58;;;;;;;0.00;0.00;;;;;;;-5.75;100.00;95280.44;1027417;28;20055;-68
2024/01/16 02:14:28;;;;;;;0.20;0.20;;;;;;;-5.79;100.00;95290.22;1027234;28;20027;-68
2024/01/16 02:14:59;;;;;;;0.00;0.00;;;;;;;-5.83;100.00;95285.63;1023682;29;20027;-68
2024/01/16 02:15:29;;;;;;;0.38;0.25;;;;;;;-5.86;100.00;95288.53;1019644;28;20028;-69
2024/01/16 02:16:00;;;;;;;0.00;0.00;;;;;;;-5.89;100.00;95286.31;1027518;28;20395;-69
2024/01/16 02:16:41;;;;;;;0.00;0.00;;;;;;;-5.95;100.00;95280.94;1029373;28;20089;-68
2024/01/16 02:17:12;;;;;;;0.00;0.00;;;;;;;-5.99;100.00;95282.25;1023308;29;20011;-70
2024/01/16 02:17:42;;;;;;;0.15;0.15;;;;;;;-5.93;100.00;95291.78;1019534;29;20051;-67
2024/01/16 02:18:13;;;;;;;0.00;0.00;;;;;;;-5.94;100.00;95290.19;1020742;29;20020;-69
2024/01/16 02:18:43;;;;;;;1.45;0.47;;;;;;;-5.95;100.00;95288.59;1023475;28;20034;-68
2024/01/16 02:19:14;;;;;;;0.00;0.00;;;;;;;-5.95;100.00;95286.03;1027350;28;20462;-68
2024/01/16 02:19:44;;;;;;;0.00;0.00;;;;;;;-5.99;100.00;95287.34;1031748;28;20026;-69
2024/01/16 02:20:15;;;;;;;0.80;0.75;;;;;;;-6.01;100.00;95289.28;1035493;28;20026;-68
2024/01/16 02:20:46;;;;;;;0.00;0.00;;;;;;;-6.01;100.00;95280.81;1027590;28;20058;-68
2024/01/16 02:21:25;;;;;;;0.57;0.57;;;;;;;-6.01;100.00;95281.63;1027270;28;20065;-70
2024/01/16 02:21:59;;;;;;;0.10;0.10;;;;;;;-6.03;100.00;95272.56;1019545;29;20103;-68
2024/01/16 02:22:30;;;;;;;1.16;0.90;;;;;;;-6.02;100.00;95282.59;1014757;29;20506;-67
2024/01/16 02:23:01;;;;;;;0.00;0.00;;;;;;;-5.96;100.00;95284.47;1016066;29;20039;-68
2024/01/16 02:23:32;;;;;;;0.00;0.00;;;;;;;-5.96;100.00;95289.56;1019541;29;20091;-68